This is the latest recevied weather packets stored in our database for station/object KF5JED-13. If no packets are shown the sender has not sent any weather packets the latest 10 day(s).
| Time | Temp. | Humidity | Pressure | Rain* | Wind** | Luminosity | Snow |
|---|---|---|---|---|---|---|---|
| 1777491051 | 19.44° C | 32% | 1017 hPa | 0 mm | - | 863 W/m² | - |
| 1777490746 | 18.89° C | 33% | 1017.5 hPa | 0 mm | - | 866 W/m² | - |
| 1777490444 | 19.44° C | 32% | 1017.2 hPa | 0 mm | - | 869 W/m² | - |
| 1777488323 | 18.33° C | 34% | 1017.6 hPa | 0 mm | - | 863 W/m² | - |
| 1777486809 | 17.78° C | 37% | 1018 hPa | 0 mm | - | 718 W/m² | - |
| 1777486204 | 17.22° C | 41% | 1018.4 hPa | 0 mm | - | 609 W/m² | - |
| 1777482559 | 15° C | 52% | 1019.2 hPa | 0 mm | - | 726 W/m² | - |
| 1777482257 | 14.44° C | 54% | 1019.6 hPa | 0 mm | - | 860 W/m² | - |
| 1777481349 | 14.44° C | 54% | 1019.8 hPa | 0 mm | - | 787 W/m² | - |
| 1777480742 | 13.89° C | 57% | 1019.9 hPa | 0 mm | - | 560 W/m² | - |
| 1777480438 | 13.89° C | 57% | 1019.7 hPa | 0 mm | - | 587 W/m² | - |
| 1777480134 | 13.89° C | 58% | 1019.7 hPa | 0 mm | - | 75 W/m² | - |
| 1777479831 | 12.78° C | 59% | 1019.7 hPa | 0 mm | - | 635 W/m² | - |
| 1777479528 | 12.78° C | 59% | 1019.9 hPa | 0 mm | - | 583 W/m² | - |
| 1777478922 | 13.33° C | 60% | 1020 hPa | 0 mm | - | 675 W/m² | - |
| 1777478315 | 12.78° C | 62% | 1020.1 hPa | 0 mm | - | 675 W/m² | - |
| 1777477100 | 11.11° C | 67% | 1020.1 hPa | 0 mm | - | 606 W/m² | - |
| 1777476798 | 11.11° C | 67% | 1020.1 hPa | 0 mm | - | 531 W/m² | - |
| 1777476495 | 11.11° C | 67% | 1020.5 hPa | 0 mm | - | 549 W/m² | - |
| 1777475887 | 10.56° C | 70% | 1020.4 hPa | 0 mm | - | 415 W/m² | - |
| 1777474670 | 9.44° C | 73% | 1020.4 hPa | 0 mm | - | 361 W/m² | - |
| 1777473458 | 10° C | 72% | 1020.5 hPa | 0 mm | - | 306 W/m² | - |
| 1777472547 | 10° C | 74% | 1020.8 hPa | 0 mm | - | 336 W/m² | - |
| 1777472244 | 9.44° C | 75% | 1020.6 hPa | 0 mm | - | 299 W/m² | - |
| 1777471940 | 9.44° C | 75% | 1020.7 hPa | 0 mm | - | 227 W/m² | - |
* Rain latest hour (hover to see other rain measurements)
** Current wind speed in m/s (hover to see current wind gust speed)